sensor_id;sensor_type;location;lat;lon;timestamp;P1;durP1;ratioP1;P2;durP2;ratioP2
59728;SDS011;45588;51.598;5.618;2023-07-31T00:01:15;31.43;;;9.80;;
59728;SDS011;45588;51.598;5.618;2023-07-31T00:03:41;21.20;;;8.93;;
59728;SDS011;45588;51.598;5.618;2023-07-31T00:06:06;26.27;;;10.30;;
59728;SDS011;45588;51.598;5.618;2023-07-31T00:08:31;32.47;;;18.20;;
59728;SDS011;45588;51.598;5.618;2023-07-31T00:10:56;32.23;;;9.60;;
59728;SDS011;45588;51.598;5.618;2023-07-31T00:13:21;33.92;;;17.05;;
59728;SDS011;45588;51.598;5.618;2023-07-31T00:15:47;28.85;;;8.48;;
59728;SDS011;45588;51.598;5.618;2023-07-31T00:18:12;27.08;;;8.75;;
59728;SDS011;45588;51.598;5.618;2023-07-31T00:20:37;24.48;;;9.13;;
59728;SDS011;45588;51.598;5.618;2023-07-31T00:23:02;23.30;;;7.60;;
59728;SDS011;45588;51.598;5.618;2023-07-31T00:25:28;34.50;;;11.47;;
59728;SDS011;45588;51.598;5.618;2023-07-31T00:27:53;26.00;;;8.00;;
59728;SDS011;45588;51.598;5.618;2023-07-31T00:30:18;20.63;;;7.77;;
59728;SDS011;45588;51.598;5.618;2023-07-31T00:32:43;24.93;;;8.80;;
59728;SDS011;45588;51.598;5.618;2023-07-31T00:35:08;16.93;;;6.90;;
59728;SDS011;45588;51.598;5.618;2023-07-31T00:37:33;28.13;;;14.00;;
59728;SDS011;45588;51.598;5.618;2023-07-31T00:39:59;28.38;;;14.63;;
59728;SDS011;45588;51.598;5.618;2023-07-31T00:42:24;31.25;;;14.48;;
59728;SDS011;45588;51.598;5.618;2023-07-31T00:44:49;38.63;;;13.95;;
59728;SDS011;45588;51.598;5.618;2023-07-31T00:47:14;28.50;;;8.15;;
59728;SDS011;45588;51.598;5.618;2023-07-31T00:49:40;19.60;;;6.75;;
59728;SDS011;45588;51.598;5.618;2023-07-31T00:52:05;23.63;;;7.68;;
59728;SDS011;45588;51.598;5.618;2023-07-31T00:54:30;21.38;;;5.95;;
59728;SDS011;45588;51.598;5.618;2023-07-31T00:56:56;27.95;;;12.77;;
59728;SDS011;45588;51.598;5.618;2023-07-31T00:59:21;27.83;;;13.35;;
59728;SDS011;45588;51.598;5.618;2023-07-31T01:01:46;28.05;;;13.80;;
59728;SDS011;45588;51.598;5.618;2023-07-31T01:04:12;26.92;;;13.00;;
59728;SDS011;45588;51.598;5.618;2023-07-31T01:06:54;18.88;;;6.90;;
59728;SDS011;45588;51.598;5.618;2023-07-31T01:12:04;17.80;;;6.78;;
59728;SDS011;45588;51.598;5.618;2023-07-31T01:14:31;24.08;;;11.00;;
59728;SDS011;45588;51.598;5.618;2023-07-31T01:16:56;24.92;;;11.18;;
59728;SDS011;45588;51.598;5.618;2023-07-31T01:19:22;22.07;;;11.13;;
59728;SDS011;45588;51.598;5.618;2023-07-31T01:22:11;21.90;;;10.05;;
59728;SDS011;45588;51.598;5.618;2023-07-31T01:24:49;19.30;;;6.35;;
59728;SDS011;45588;51.598;5.618;2023-07-31T01:27:23;18.23;;;5.93;;
59728;SDS011;45588;51.598;5.618;2023-07-31T01:29:53;17.75;;;5.63;;
59728;SDS011;45588;51.598;5.618;2023-07-31T01:32:20;19.50;;;9.57;;
59728;SDS011;45588;51.598;5.618;2023-07-31T01:34:46;19.90;;;5.50;;
59728;SDS011;45588;51.598;5.618;2023-07-31T01:37:11;20.30;;;5.90;;
59728;SDS011;45588;51.598;5.618;2023-07-31T01:39:36;17.83;;;5.47;;
59728;SDS011;45588;51.598;5.618;2023-07-31T01:42:02;15.73;;;5.17;;
59728;SDS011;45588;51.598;5.618;2023-07-31T01:44:27;24.23;;;9.97;;
59728;SDS011;45588;51.598;5.618;2023-07-31T01:46:52;24.75;;;10.80;;
59728;SDS011;45588;51.598;5.618;2023-07-31T01:49:17;11.70;;;5.47;;
59728;SDS011;45588;51.598;5.618;2023-07-31T01:51:42;15.90;;;5.33;;
59728;SDS011;45588;51.598;5.618;2023-07-31T01:54:08;13.77;;;5.63;;
59728;SDS011;45588;51.598;5.618;2023-07-31T01:56:33;21.02;;;9.43;;
59728;SDS011;45588;51.598;5.618;2023-07-31T01:58:58;26.60;;;10.90;;
59728;SDS011;45588;51.598;5.618;2023-07-31T02:01:23;24.50;;;10.57;;
59728;SDS011;45588;51.598;5.618;2023-07-31T02:03:48;24.77;;;6.85;;
59728;SDS011;45588;51.598;5.618;2023-07-31T02:06:13;17.97;;;4.93;;
59728;SDS011;45588;51.598;5.618;2023-07-31T02:08:39;15.37;;;5.40;;
59728;SDS011;45588;51.598;5.618;2023-07-31T02:11:04;19.80;;;5.43;;
59728;SDS011;45588;51.598;5.618;2023-07-31T02:13:29;17.88;;;5.18;;
59728;SDS011;45588;51.598;5.618;2023-07-31T02:15:54;19.93;;;10.17;;
59728;SDS011;45588;51.598;5.618;2023-07-31T02:18:20;19.60;;;6.03;;
59728;SDS011;45588;51.598;5.618;2023-07-31T02:20:51;22.70;;;10.73;;
59728;SDS011;45588;51.598;5.618;2023-07-31T02:23:17;24.63;;;10.65;;
59728;SDS011;45588;51.598;5.618;2023-07-31T02:25:43;21.48;;;9.65;;
59728;SDS011;45588;51.598;5.618;2023-07-31T02:28:08;25.45;;;10.52;;
59728;SDS011;45588;51.598;5.618;2023-07-31T02:30:33;21.58;;;10.85;;
59728;SDS011;45588;51.598;5.618;2023-07-31T02:32:58;20.25;;;9.45;;
59728;SDS011;45588;51.598;5.618;2023-07-31T02:35:23;25.70;;;11.03;;
59728;SDS011;45588;51.598;5.618;2023-07-31T02:37:49;16.08;;;5.90;;
59728;SDS011;45588;51.598;5.618;2023-07-31T02:40:14;25.38;;;11.60;;
59728;SDS011;45588;51.598;5.618;2023-07-31T02:42:40;23.45;;;11.38;;
59728;SDS011;45588;51.598;5.618;2023-07-31T02:45:05;23.27;;;10.17;;
59728;SDS011;45588;51.598;5.618;2023-07-31T02:47:30;27.08;;;10.77;;
59728;SDS011;45588;51.598;5.618;2023-07-31T02:49:56;24.73;;;11.27;;
59728;SDS011;45588;51.598;5.618;2023-07-31T02:52:21;15.45;;;5.18;;
59728;SDS011;45588;51.598;5.618;2023-07-31T02:54:46;25.23;;;10.40;;
59728;SDS011;45588;51.598;5.618;2023-07-31T02:57:11;19.77;;;6.60;;
59728;SDS011;45588;51.598;5.618;2023-07-31T02:59:36;25.27;;;6.43;;
59728;SDS011;45588;51.598;5.618;2023-07-31T03:02:02;24.75;;;10.82;;
59728;SDS011;45588;51.598;5.618;2023-07-31T03:04:27;24.27;;;10.95;;
59728;SDS011;45588;51.598;5.618;2023-07-31T03:06:52;25.77;;;11.05;;
59728;SDS011;45588;51.598;5.618;2023-07-31T03:09:17;22.43;;;10.33;;
59728;SDS011;45588;51.598;5.618;2023-07-31T03:11:43;27.90;;;11.40;;
59728;SDS011;45588;51.598;5.618;2023-07-31T03:14:08;14.10;;;6.13;;
59728;SDS011;45588;51.598;5.618;2023-07-31T03:16:33;19.00;;;10.38;;
59728;SDS011;45588;51.598;5.618;2023-07-31T03:18:58;15.73;;;5.87;;
59728;SDS011;45588;51.598;5.618;2023-07-31T03:21:23;16.00;;;5.97;;
59728;SDS011;45588;51.598;5.618;2023-07-31T03:23:48;22.63;;;5.63;;
59728;SDS011;45588;51.598;5.618;2023-07-31T03:26:14;18.38;;;6.05;;
59728;SDS011;45588;51.598;5.618;2023-07-31T03:28:39;18.73;;;5.72;;
59728;SDS011;45588;51.598;5.618;2023-07-31T03:31:04;18.77;;;5.53;;
59728;SDS011;45588;51.598;5.618;2023-07-31T03:33:29;16.30;;;5.75;;
59728;SDS011;45588;51.598;5.618;2023-07-31T03:35:55;20.27;;;6.10;;
59728;SDS011;45588;51.598;5.618;2023-07-31T03:38:20;15.68;;;5.75;;
59728;SDS011;45588;51.598;5.618;2023-07-31T03:40:45;26.97;;;11.23;;
59728;SDS011;45588;51.598;5.618;2023-07-31T03:43:11;20.63;;;5.72;;
59728;SDS011;45588;51.598;5.618;2023-07-31T03:45:36;17.25;;;5.53;;
59728;SDS011;45588;51.598;5.618;2023-07-31T03:48:01;25.38;;;10.65;;
59728;SDS011;45588;51.598;5.618;2023-07-31T03:50:27;23.13;;;10.85;;
59728;SDS011;45588;51.598;5.618;2023-07-31T03:52:52;14.70;;;5.13;;
59728;SDS011;45588;51.598;5.618;2023-07-31T03:55:17;15.02;;;5.75;;
59728;SDS011;45588;51.598;5.618;2023-07-31T03:57:43;13.40;;;5.00;;
59728;SDS011;45588;51.598;5.618;2023-07-31T04:00:08;20.35;;;9.15;;
59728;SDS011;45588;51.598;5.618;2023-07-31T04:02:34;25.25;;;10.10;;
59728;SDS011;45588;51.598;5.618;2023-07-31T04:04:59;16.65;;;5.07;;
59728;SDS011;45588;51.598;5.618;2023-07-31T04:07:24;15.13;;;5.57;;
59728;SDS011;45588;51.598;5.618;2023-07-31T04:09:49;19.87;;;6.63;;
59728;SDS011;45588;51.598;5.618;2023-07-31T04:12:14;11.90;;;4.47;;
59728;SDS011;45588;51.598;5.618;2023-07-31T04:14:39;21.83;;;5.43;;
59728;SDS011;45588;51.598;5.618;2023-07-31T04:17:05;21.50;;;9.52;;
59728;SDS011;45588;51.598;5.618;2023-07-31T04:19:30;13.05;;;4.50;;
59728;SDS011;45588;51.598;5.618;2023-07-31T04:21:55;19.37;;;9.03;;
59728;SDS011;45588;51.598;5.618;2023-07-31T04:24:20;19.50;;;9.27;;
59728;SDS011;45588;51.598;5.618;2023-07-31T04:26:52;16.17;;;6.25;;
59728;SDS011;45588;51.598;5.618;2023-07-31T04:29:17;13.05;;;4.45;;
59728;SDS011;45588;51.598;5.618;2023-07-31T04:31:43;11.65;;;5.03;;
59728;SDS011;45588;51.598;5.618;2023-07-31T04:34:08;17.33;;;5.27;;
59728;SDS011;45588;51.598;5.618;2023-07-31T04:36:33;14.15;;;4.47;;
59728;SDS011;45588;51.598;5.618;2023-07-31T04:38:59;13.45;;;4.40;;
59728;SDS011;45588;51.598;5.618;2023-07-31T04:41:24;15.90;;;8.27;;
59728;SDS011;45588;51.598;5.618;2023-07-31T04:43:49;13.73;;;5.63;;
59728;SDS011;45588;51.598;5.618;2023-07-31T04:46:15;23.33;;;9.77;;
59728;SDS011;45588;51.598;5.618;2023-07-31T04:48:40;11.48;;;5.03;;
59728;SDS011;45588;51.598;5.618;2023-07-31T04:51:05;20.35;;;5.13;;
59728;SDS011;45588;51.598;5.618;2023-07-31T04:53:30;19.13;;;6.33;;
59728;SDS011;45588;51.598;5.618;2023-07-31T04:55:56;22.23;;;9.07;;
59728;SDS011;45588;51.598;5.618;2023-07-31T04:58:21;19.85;;;9.57;;
59728;SDS011;45588;51.598;5.618;2023-07-31T05:00:46;23.58;;;10.00;;
59728;SDS011;45588;51.598;5.618;2023-07-31T05:03:11;23.20;;;9.77;;
59728;SDS011;45588;51.598;5.618;2023-07-31T05:05:36;19.67;;;9.45;;
59728;SDS011;45588;51.598;5.618;2023-07-31T05:08:02;22.83;;;8.93;;
59728;SDS011;45588;51.598;5.618;2023-07-31T05:10:27;14.13;;;5.40;;
59728;SDS011;45588;51.598;5.618;2023-07-31T05:12:52;20.03;;;9.23;;
59728;SDS011;45588;51.598;5.618;2023-07-31T05:15:17;21.23;;;5.53;;
59728;SDS011;45588;51.598;5.618;2023-07-31T05:17:43;18.10;;;9.40;;
59728;SDS011;45588;51.598;5.618;2023-07-31T05:20:08;18.33;;;4.95;;
59728;SDS011;45588;51.598;5.618;2023-07-31T05:22:34;14.65;;;4.78;;
59728;SDS011;45588;51.598;5.618;2023-07-31T05:24:59;10.17;;;4.73;;
59728;SDS011;45588;51.598;5.618;2023-07-31T05:27:24;22.73;;;9.52;;
59728;SDS011;45588;51.598;5.618;2023-07-31T05:29:50;15.77;;;5.07;;
59728;SDS011;45588;51.598;5.618;2023-07-31T05:32:15;13.95;;;5.28;;
59728;SDS011;45588;51.598;5.618;2023-07-31T05:34:40;18.23;;;9.43;;
59728;SDS011;45588;51.598;5.618;2023-07-31T05:37:05;18.95;;;10.45;;
59728;SDS011;45588;51.598;5.618;2023-07-31T05:39:31;16.75;;;9.68;;
59728;SDS011;45588;51.598;5.618;2023-07-31T05:41:56;15.35;;;9.60;;
59728;SDS011;45588;51.598;5.618;2023-07-31T05:44:21;10.60;;;5.10;;
59728;SDS011;45588;51.598;5.618;2023-07-31T05:46:46;12.38;;;5.07;;
59728;SDS011;45588;51.598;5.618;2023-07-31T05:49:11;13.60;;;5.17;;
59728;SDS011;45588;51.598;5.618;2023-07-31T05:51:37;9.70;;;5.17;;
59728;SDS011;45588;51.598;5.618;2023-07-31T05:54:02;15.57;;;9.40;;
59728;SDS011;45588;51.598;5.618;2023-07-31T05:56:27;13.43;;;8.73;;
59728;SDS011;45588;51.598;5.618;2023-07-31T05:58:52;6.83;;;4.30;;
59728;SDS011;45588;51.598;5.618;2023-07-31T06:01:17;7.32;;;4.00;;
59728;SDS011;45588;51.598;5.618;2023-07-31T06:03:43;16.35;;;4.40;;
59728;SDS011;45588;51.598;5.618;2023-07-31T06:06:08;6.07;;;3.20;;
59728;SDS011;45588;51.598;5.618;2023-07-31T06:08:33;5.90;;;3.33;;
59728;SDS011;45588;51.598;5.618;2023-07-31T06:10:59;6.88;;;3.08;;
59728;SDS011;45588;51.598;5.618;2023-07-31T06:13:24;10.20;;;3.40;;
59728;SDS011;45588;51.598;5.618;2023-07-31T06:15:49;9.57;;;3.40;;
59728;SDS011;45588;51.598;5.618;2023-07-31T06:18:15;10.63;;;6.22;;
59728;SDS011;45588;51.598;5.618;2023-07-31T06:20:41;7.53;;;6.13;;
59728;SDS011;45588;51.598;5.618;2023-07-31T06:23:06;5.40;;;3.10;;
59728;SDS011;45588;51.598;5.618;2023-07-31T06:25:31;9.98;;;5.40;;
59728;SDS011;45588;51.598;5.618;2023-07-31T06:27:56;6.28;;;5.68;;
59728;SDS011;45588;51.598;5.618;2023-07-31T06:30:21;7.43;;;5.37;;
59728;SDS011;45588;51.598;5.618;2023-07-31T06:32:47;6.68;;;5.45;;
59728;SDS011;45588;51.598;5.618;2023-07-31T06:35:12;6.17;;;5.43;;
59728;SDS011;45588;51.598;5.618;2023-07-31T06:37:37;6.10;;;4.80;;
59728;SDS011;45588;51.598;5.618;2023-07-31T06:40:05;6.80;;;4.93;;
59728;SDS011;45588;51.598;5.618;2023-07-31T06:42:32;6.82;;;5.32;;
59728;SDS011;45588;51.598;5.618;2023-07-31T06:44:57;7.28;;;3.55;;
59728;SDS011;45588;51.598;5.618;2023-07-31T06:47:22;4.30;;;3.50;;
59728;SDS011;45588;51.598;5.618;2023-07-31T06:49:47;6.10;;;3.38;;
59728;SDS011;45588;51.598;5.618;2023-07-31T06:52:13;4.20;;;2.60;;
59728;SDS011;45588;51.598;5.618;2023-07-31T06:54:38;3.55;;;2.50;;
59728;SDS011;45588;51.598;5.618;2023-07-31T06:57:03;7.50;;;5.77;;
59728;SDS011;45588;51.598;5.618;2023-07-31T06:59:28;6.82;;;3.72;;
59728;SDS011;45588;51.598;5.618;2023-07-31T07:01:54;6.88;;;5.95;;
59728;SDS011;45588;51.598;5.618;2023-07-31T07:04:19;6.83;;;3.93;;
59728;SDS011;45588;51.598;5.618;2023-07-31T07:06:44;6.53;;;3.60;;
59728;SDS011;45588;51.598;5.618;2023-07-31T07:09:09;4.53;;;3.17;;
59728;SDS011;45588;51.598;5.618;2023-07-31T07:11:34;5.93;;;3.40;;
59728;SDS011;45588;51.598;5.618;2023-07-31T07:14:00;6.70;;;5.73;;
59728;SDS011;45588;51.598;5.618;2023-07-31T07:16:25;6.18;;;5.57;;
59728;SDS011;45588;51.598;5.618;2023-07-31T07:18:50;6.35;;;3.60;;
59728;SDS011;45588;51.598;5.618;2023-07-31T07:21:16;7.40;;;5.63;;
59728;SDS011;45588;51.598;5.618;2023-07-31T07:23:42;6.05;;;5.45;;
59728;SDS011;45588;51.598;5.618;2023-07-31T07:26:08;3.97;;;3.53;;
59728;SDS011;45588;51.598;5.618;2023-07-31T07:28:33;6.00;;;5.40;;
59728;SDS011;45588;51.598;5.618;2023-07-31T07:30:58;5.37;;;4.87;;
59728;SDS011;45588;51.598;5.618;2023-07-31T07:33:23;4.15;;;3.05;;
59728;SDS011;45588;51.598;5.618;2023-07-31T07:35:49;6.80;;;4.43;;
59728;SDS011;45588;51.598;5.618;2023-07-31T07:38:14;5.20;;;4.60;;
59728;SDS011;45588;51.598;5.618;2023-07-31T07:40:40;5.30;;;3.10;;
59728;SDS011;45588;51.598;5.618;2023-07-31T07:43:05;4.65;;;4.25;;
59728;SDS011;45588;51.598;5.618;2023-07-31T07:45:32;5.68;;;4.93;;
59728;SDS011;45588;51.598;5.618;2023-07-31T07:47:57;4.43;;;2.73;;
59728;SDS011;45588;51.598;5.618;2023-07-31T07:50:24;5.30;;;4.75;;
59728;SDS011;45588;51.598;5.618;2023-07-31T07:52:49;5.68;;;5.10;;
59728;SDS011;45588;51.598;5.618;2023-07-31T07:55:14;7.47;;;2.90;;
59728;SDS011;45588;51.598;5.618;2023-07-31T07:57:39;6.63;;;5.80;;
59728;SDS011;45588;51.598;5.618;2023-07-31T08:00:05;6.78;;;5.90;;
59728;SDS011;45588;51.598;5.618;2023-07-31T08:02:30;5.65;;;4.25;;
59728;SDS011;45588;51.598;5.618;2023-07-31T08:04:56;7.80;;;6.03;;
59728;SDS011;45588;51.598;5.618;2023-07-31T08:07:21;4.70;;;3.72;;
59728;SDS011;45588;51.598;5.618;2023-07-31T08:09:46;7.73;;;6.53;;
59728;SDS011;45588;51.598;5.618;2023-07-31T08:12:11;5.07;;;3.83;;
59728;SDS011;45588;51.598;5.618;2023-07-31T08:14:36;8.82;;;7.00;;
59728;SDS011;45588;51.598;5.618;2023-07-31T08:17:02;7.75;;;4.35;;
59728;SDS011;45588;51.598;5.618;2023-07-31T08:19:27;7.60;;;4.22;;
59728;SDS011;45588;51.598;5.618;2023-07-31T08:21:52;8.40;;;7.53;;
59728;SDS011;45588;51.598;5.618;2023-07-31T08:24:17;8.30;;;7.40;;
59728;SDS011;45588;51.598;5.618;2023-07-31T08:26:42;11.03;;;7.77;;
59728;SDS011;45588;51.598;5.618;2023-07-31T08:29:08;8.82;;;7.18;;
59728;SDS011;45588;51.598;5.618;2023-07-31T08:31:33;7.82;;;4.65;;
59728;SDS011;45588;51.598;5.618;2023-07-31T08:33:59;8.48;;;7.35;;
59728;SDS011;45588;51.598;5.618;2023-07-31T08:36:24;9.68;;;7.78;;
59728;SDS011;45588;51.598;5.618;2023-07-31T08:38:50;9.50;;;8.33;;
59728;SDS011;45588;51.598;5.618;2023-07-31T08:41:15;8.87;;;7.97;;
59728;SDS011;45588;51.598;5.618;2023-07-31T08:43:42;10.27;;;7.45;;
59728;SDS011;45588;51.598;5.618;2023-07-31T08:46:08;11.20;;;7.60;;
59728;SDS011;45588;51.598;5.618;2023-07-31T08:48:34;6.47;;;4.50;;
59728;SDS011;45588;51.598;5.618;2023-07-31T08:51:00;4.70;;;3.60;;
59728;SDS011;45588;51.598;5.618;2023-07-31T08:53:25;7.35;;;4.45;;
59728;SDS011;45588;51.598;5.618;2023-07-31T08:55:52;8.07;;;4.10;;
59728;SDS011;45588;51.598;5.618;2023-07-31T08:58:18;8.30;;;4.00;;
59728;SDS011;45588;51.598;5.618;2023-07-31T09:00:43;10.52;;;8.23;;
59728;SDS011;45588;51.598;5.618;2023-07-31T09:03:17;10.68;;;8.20;;
59728;SDS011;45588;51.598;5.618;2023-07-31T09:05:43;8.13;;;7.30;;
59728;SDS011;45588;51.598;5.618;2023-07-31T09:08:10;11.40;;;9.00;;
59728;SDS011;45588;51.598;5.618;2023-07-31T09:10:39;9.35;;;4.90;;
59728;SDS011;45588;51.598;5.618;2023-07-31T09:13:05;10.43;;;8.73;;
59728;SDS011;45588;51.598;5.618;2023-07-31T09:15:30;10.95;;;8.35;;
59728;SDS011;45588;51.598;5.618;2023-07-31T09:17:59;11.33;;;9.20;;
59728;SDS011;45588;51.598;5.618;2023-07-31T09:20:26;11.93;;;9.25;;
59728;SDS011;45588;51.598;5.618;2023-07-31T09:22:51;10.63;;;9.05;;
59728;SDS011;45588;51.598;5.618;2023-07-31T09:27:55;11.77;;;10.57;;
59728;SDS011;45588;51.598;5.618;2023-07-31T09:30:20;10.40;;;5.68;;
59728;SDS011;45588;51.598;5.618;2023-07-31T09:32:46;14.45;;;9.98;;
59728;SDS011;45588;51.598;5.618;2023-07-31T09:35:22;11.40;;;8.85;;
59728;SDS011;45588;51.598;5.618;2023-07-31T09:37:48;10.43;;;9.20;;
59728;SDS011;45588;51.598;5.618;2023-07-31T09:40:24;11.25;;;9.27;;
59728;SDS011;45588;51.598;5.618;2023-07-31T09:42:50;11.93;;;8.95;;
59728;SDS011;45588;51.598;5.618;2023-07-31T09:45:15;7.27;;;4.63;;
59728;SDS011;45588;51.598;5.618;2023-07-31T09:47:45;12.43;;;8.90;;
59728;SDS011;45588;51.598;5.618;2023-07-31T09:50:11;10.00;;;5.55;;
59728;SDS011;45588;51.598;5.618;2023-07-31T09:52:38;12.13;;;8.83;;
59728;SDS011;45588;51.598;5.618;2023-07-31T09:55:03;13.10;;;8.45;;
59728;SDS011;45588;51.598;5.618;2023-07-31T09:57:28;12.30;;;9.02;;
59728;SDS011;45588;51.598;5.618;2023-07-31T09:59:54;12.90;;;8.48;;
59728;SDS011;45588;51.598;5.618;2023-07-31T10:02:22;10.13;;;8.05;;
59728;SDS011;45588;51.598;5.618;2023-07-31T10:04:49;11.50;;;7.43;;
59728;SDS011;45588;51.598;5.618;2023-07-31T10:07:15;10.68;;;8.40;;
59728;SDS011;45588;51.598;5.618;2023-07-31T10:09:42;12.07;;;8.48;;
59728;SDS011;45588;51.598;5.618;2023-07-31T10:12:07;12.93;;;8.25;;
59728;SDS011;45588;51.598;5.618;2023-07-31T10:14:35;11.00;;;7.50;;
59728;SDS011;45588;51.598;5.618;2023-07-31T10:17:00;12.57;;;7.53;;
59728;SDS011;45588;51.598;5.618;2023-07-31T10:19:26;8.95;;;7.65;;
59728;SDS011;45588;51.598;5.618;2023-07-31T10:21:52;9.57;;;4.68;;
59728;SDS011;45588;51.598;5.618;2023-07-31T10:24:17;6.05;;;3.80;;
59728;SDS011;45588;51.598;5.618;2023-07-31T10:26:44;9.48;;;4.60;;
59728;SDS011;45588;51.598;5.618;2023-07-31T10:29:10;9.75;;;7.30;;
59728;SDS011;45588;51.598;5.618;2023-07-31T10:31:36;13.27;;;7.50;;
59728;SDS011;45588;51.598;5.618;2023-07-31T10:34:01;9.85;;;7.28;;
59728;SDS011;45588;51.598;5.618;2023-07-31T10:36:28;9.13;;;3.95;;
59728;SDS011;45588;51.598;5.618;2023-07-31T10:38:54;9.00;;;6.68;;
59728;SDS011;45588;51.598;5.618;2023-07-31T10:41:20;8.68;;;5.85;;
59728;SDS011;45588;51.598;5.618;2023-07-31T10:43:54;10.52;;;6.35;;
59728;SDS011;45588;51.598;5.618;2023-07-31T10:46:19;9.20;;;6.03;;
59728;SDS011;45588;51.598;5.618;2023-07-31T10:48:44;9.20;;;6.83;;
59728;SDS011;45588;51.598;5.618;2023-07-31T10:51:10;6.40;;;5.70;;
59728;SDS011;45588;51.598;5.618;2023-07-31T10:53:37;9.20;;;5.78;;
59728;SDS011;45588;51.598;5.618;2023-07-31T10:56:03;6.40;;;5.68;;
59728;SDS011;45588;51.598;5.618;2023-07-31T10:58:29;9.27;;;5.88;;
59728;SDS011;45588;51.598;5.618;2023-07-31T11:00:57;9.00;;;6.22;;
59728;SDS011;45588;51.598;5.618;2023-07-31T11:03:25;7.55;;;5.78;;
59728;SDS011;45588;51.598;5.618;2023-07-31T11:05:51;9.85;;;6.28;;
59728;SDS011;45588;51.598;5.618;2023-07-31T11:08:19;8.13;;;6.38;;
59728;SDS011;45588;51.598;5.618;2023-07-31T11:10:45;8.45;;;6.30;;
59728;SDS011;45588;51.598;5.618;2023-07-31T11:13:11;9.30;;;6.78;;
59728;SDS011;45588;51.598;5.618;2023-07-31T11:15:36;10.77;;;6.70;;
59728;SDS011;45588;51.598;5.618;2023-07-31T11:18:02;9.27;;;5.75;;
59728;SDS011;45588;51.598;5.618;2023-07-31T11:20:35;9.38;;;6.68;;
59728;SDS011;45588;51.598;5.618;2023-07-31T11:23:01;11.10;;;6.97;;
59728;SDS011;45588;51.598;5.618;2023-07-31T11:25:28;9.27;;;7.07;;
59728;SDS011;45588;51.598;5.618;2023-07-31T11:27:53;13.27;;;6.32;;
59728;SDS011;45588;51.598;5.618;2023-07-31T11:30:19;6.93;;;5.78;;
59728;SDS011;45588;51.598;5.618;2023-07-31T11:32:45;8.45;;;5.95;;
59728;SDS011;45588;51.598;5.618;2023-07-31T11:35:13;6.47;;;5.67;;
59728;SDS011;45588;51.598;5.618;2023-07-31T11:37:39;8.57;;;5.95;;
59728;SDS011;45588;51.598;5.618;2023-07-31T11:40:04;8.32;;;5.82;;
59728;SDS011;45588;51.598;5.618;2023-07-31T11:42:30;11.10;;;6.28;;
59728;SDS011;45588;51.598;5.618;2023-07-31T11:44:55;9.43;;;6.50;;
59728;SDS011;45588;51.598;5.618;2023-07-31T11:47:20;9.70;;;6.53;;
59728;SDS011;45588;51.598;5.618;2023-07-31T11:49:45;8.60;;;6.47;;
59728;SDS011;45588;51.598;5.618;2023-07-31T11:52:11;9.43;;;6.40;;
59728;SDS011;45588;51.598;5.618;2023-07-31T11:54:36;12.32;;;6.03;;
59728;SDS011;45588;51.598;5.618;2023-07-31T11:57:02;10.55;;;6.00;;
59728;SDS011;45588;51.598;5.618;2023-07-31T11:59:28;7.80;;;5.68;;
59728;SDS011;45588;51.598;5.618;2023-07-31T12:01:53;6.35;;;4.93;;
59728;SDS011;45588;51.598;5.618;2023-07-31T12:04:19;8.82;;;5.85;;
59728;SDS011;45588;51.598;5.618;2023-07-31T12:06:44;7.07;;;5.47;;
59728;SDS011;45588;51.598;5.618;2023-07-31T12:09:10;6.95;;;5.10;;
59728;SDS011;45588;51.598;5.618;2023-07-31T12:11:44;7.32;;;5.40;;
59728;SDS011;45588;51.598;5.618;2023-07-31T12:14:26;7.25;;;5.53;;
59728;SDS011;45588;51.598;5.618;2023-07-31T12:16:53;6.28;;;5.25;;
59728;SDS011;45588;51.598;5.618;2023-07-31T12:19:19;8.23;;;5.88;;
59728;SDS011;45588;51.598;5.618;2023-07-31T12:21:44;9.18;;;6.35;;
59728;SDS011;45588;51.598;5.618;2023-07-31T12:24:09;9.88;;;6.20;;
59728;SDS011;45588;51.598;5.618;2023-07-31T12:26:35;7.60;;;5.20;;
59728;SDS011;45588;51.598;5.618;2023-07-31T12:29:00;9.73;;;6.23;;
59728;SDS011;45588;51.598;5.618;2023-07-31T12:31:26;17.57;;;10.20;;
59728;SDS011;45588;51.598;5.618;2023-07-31T12:33:52;7.60;;;5.80;;
59728;SDS011;45588;51.598;5.618;2023-07-31T12:36:22;7.18;;;6.20;;
59728;SDS011;45588;51.598;5.618;2023-07-31T12:38:47;7.82;;;5.85;;
59728;SDS011;45588;51.598;5.618;2023-07-31T12:41:12;10.27;;;6.72;;
59728;SDS011;45588;51.598;5.618;2023-07-31T12:43:40;9.63;;;6.67;;
59728;SDS011;45588;51.598;5.618;2023-07-31T12:46:05;14.82;;;9.70;;
59728;SDS011;45588;51.598;5.618;2023-07-31T12:48:32;9.73;;;7.22;;
59728;SDS011;45588;51.598;5.618;2023-07-31T12:50:58;12.98;;;7.78;;
59728;SDS011;45588;51.598;5.618;2023-07-31T12:53:23;10.47;;;6.47;;
59728;SDS011;45588;51.598;5.618;2023-07-31T12:55:48;12.77;;;8.77;;
59728;SDS011;45588;51.598;5.618;2023-07-31T12:58:13;11.52;;;7.80;;
59728;SDS011;45588;51.598;5.618;2023-07-31T13:00:39;8.60;;;6.47;;
59728;SDS011;45588;51.598;5.618;2023-07-31T13:03:04;10.02;;;6.70;;
59728;SDS011;45588;51.598;5.618;2023-07-31T13:05:29;9.47;;;7.77;;
59728;SDS011;45588;51.598;5.618;2023-07-31T13:07:54;10.18;;;7.72;;
59728;SDS011;45588;51.598;5.618;2023-07-31T13:10:20;11.18;;;8.10;;
59728;SDS011;45588;51.598;5.618;2023-07-31T13:12:45;9.23;;;7.80;;
59728;SDS011;45588;51.598;5.618;2023-07-31T13:15:12;11.93;;;8.10;;
59728;SDS011;45588;51.598;5.618;2023-07-31T13:17:37;10.50;;;7.15;;
59728;SDS011;45588;51.598;5.618;2023-07-31T13:20:02;12.52;;;9.30;;
59728;SDS011;45588;51.598;5.618;2023-07-31T13:22:28;14.73;;;8.98;;
59728;SDS011;45588;51.598;5.618;2023-07-31T13:24:53;13.88;;;8.70;;
59728;SDS011;45588;51.598;5.618;2023-07-31T13:27:19;12.30;;;8.48;;
59728;SDS011;45588;51.598;5.618;2023-07-31T13:29:46;10.45;;;7.90;;
59728;SDS011;45588;51.598;5.618;2023-07-31T13:32:11;11.55;;;8.48;;
59728;SDS011;45588;51.598;5.618;2023-07-31T13:34:37;11.47;;;8.20;;
59728;SDS011;45588;51.598;5.618;2023-07-31T13:37:02;11.57;;;7.80;;
59728;SDS011;45588;51.598;5.618;2023-07-31T13:39:27;13.20;;;7.85;;
59728;SDS011;45588;51.598;5.618;2023-07-31T13:41:52;15.25;;;8.20;;
59728;SDS011;45588;51.598;5.618;2023-07-31T13:44:18;12.55;;;8.45;;
59728;SDS011;45588;51.598;5.618;2023-07-31T13:46:43;12.13;;;7.90;;
59728;SDS011;45588;51.598;5.618;2023-07-31T13:49:08;9.57;;;7.67;;
59728;SDS011;45588;51.598;5.618;2023-07-31T13:51:33;11.80;;;7.40;;
59728;SDS011;45588;51.598;5.618;2023-07-31T13:53:58;14.30;;;8.20;;
59728;SDS011;45588;51.598;5.618;2023-07-31T13:56:24;9.27;;;8.20;;
59728;SDS011;45588;51.598;5.618;2023-07-31T13:58:49;8.17;;;4.70;;
59728;SDS011;45588;51.598;5.618;2023-07-31T14:01:14;12.38;;;9.07;;
59728;SDS011;45588;51.598;5.618;2023-07-31T14:03:39;10.93;;;8.50;;
59728;SDS011;45588;51.598;5.618;2023-07-31T14:06:04;11.07;;;8.53;;
59728;SDS011;45588;51.598;5.618;2023-07-31T14:08:30;14.60;;;9.50;;
59728;SDS011;45588;51.598;5.618;2023-07-31T14:10:56;15.02;;;9.63;;
59728;SDS011;45588;51.598;5.618;2023-07-31T14:13:21;16.45;;;9.75;;
59728;SDS011;45588;51.598;5.618;2023-07-31T14:15:46;19.55;;;9.77;;
59728;SDS011;45588;51.598;5.618;2023-07-31T14:18:11;12.05;;;5.03;;
59728;SDS011;45588;51.598;5.618;2023-07-31T14:20:37;14.37;;;5.47;;
59728;SDS011;45588;51.598;5.618;2023-07-31T14:23:03;13.32;;;9.77;;
59728;SDS011;45588;51.598;5.618;2023-07-31T14:25:28;13.00;;;9.95;;
59728;SDS011;45588;51.598;5.618;2023-07-31T14:27:54;15.90;;;10.73;;
59728;SDS011;45588;51.598;5.618;2023-07-31T14:30:19;17.08;;;10.43;;
59728;SDS011;45588;51.598;5.618;2023-07-31T14:32:45;16.70;;;10.23;;
59728;SDS011;45588;51.598;5.618;2023-07-31T14:35:10;12.30;;;9.80;;